createdAt,value
2022-10-10T00:00:18.307Z,8.40
2022-10-10T00:02:45.422Z,8.40
2022-10-10T00:05:12.470Z,8.50
2022-10-10T00:07:39.517Z,8.50
2022-10-10T00:10:08.005Z,8.60
2022-10-10T00:12:35.030Z,8.60
2022-10-10T00:15:02.249Z,8.70
2022-10-10T00:17:29.323Z,8.60
2022-10-10T00:19:56.429Z,8.60
2022-10-10T00:22:23.445Z,8.60
2022-10-10T00:24:50.688Z,8.60
2022-10-10T00:27:17.860Z,8.60
2022-10-10T00:29:44.945Z,8.60
2022-10-10T00:32:12.089Z,8.70
2022-10-10T00:34:39.170Z,8.70
2022-10-10T00:37:06.298Z,8.70
2022-10-10T00:39:33.395Z,8.70
2022-10-10T00:42:00.474Z,8.70
2022-10-10T00:44:28.553Z,8.70
2022-10-10T00:46:55.669Z,8.70
2022-10-10T00:49:27.604Z,8.70
2022-10-10T00:51:57.656Z,8.70
2022-10-10T00:54:26.065Z,8.70
2022-10-10T00:57:04.248Z,8.70
2022-10-10T00:59:33.767Z,8.70
2022-10-10T01:02:00.804Z,8.70
2022-10-10T01:04:45.822Z,8.60
2022-10-10T01:07:21.032Z,8.60
2022-10-10T01:09:51.658Z,8.50
2022-10-10T01:12:58.531Z,8.50
2022-10-10T01:15:33.152Z,8.50
2022-10-10T01:18:04.548Z,8.70
2022-10-10T01:20:58.411Z,8.70
2022-10-10T01:23:33.474Z,8.70
2022-10-10T01:26:12.337Z,8.80
2022-10-10T01:28:48.994Z,8.80
2022-10-10T01:31:22.571Z,8.90
2022-10-10T01:33:50.729Z,8.90
2022-10-10T01:36:25.642Z,8.80
2022-10-10T01:39:09.842Z,8.90
2022-10-10T01:41:43.345Z,8.90
2022-10-10T01:44:10.487Z,9.00
2022-10-10T01:46:37.741Z,9.00
2022-10-10T01:49:05.139Z,9.00
2022-10-10T01:51:51.392Z,9.00
2022-10-10T01:54:38.346Z,9.00
2022-10-10T01:57:20.196Z,8.90
2022-10-10T01:59:58.372Z,8.90
2022-10-10T02:02:49.092Z,9.00
2022-10-10T02:05:39.836Z,9.10
2022-10-10T02:08:09.018Z,9.10
2022-10-10T02:10:44.863Z,9.10
2022-10-10T02:13:13.146Z,9.10
2022-10-10T02:15:46.075Z,9.20
2022-10-10T02:18:16.410Z,9.10
2022-10-10T02:20:44.993Z,9.20
2022-10-10T02:23:16.238Z,9.10
2022-10-10T02:25:47.700Z,9.20
2022-10-10T02:28:18.520Z,9.20
2022-10-10T02:30:49.349Z,9.20
2022-10-10T02:33:20.701Z,9.20
2022-10-10T02:35:50.743Z,9.30
2022-10-10T02:38:19.517Z,9.20
2022-10-10T02:40:48.249Z,9.20
2022-10-10T02:43:16.737Z,9.20
2022-10-10T02:45:43.838Z,9.20
2022-10-10T02:48:11.174Z,9.30
2022-10-10T02:50:38.388Z,9.20
2022-10-10T02:53:05.471Z,9.20
2022-10-10T02:55:32.691Z,9.20
2022-10-10T02:57:59.684Z,9.30
2022-10-10T03:00:26.818Z,9.30
2022-10-10T03:02:54.176Z,9.30
2022-10-10T03:05:21.557Z,9.30
2022-10-10T03:07:48.624Z,9.30
2022-10-10T03:10:15.867Z,9.30
2022-10-10T03:12:42.894Z,9.40
2022-10-10T03:15:11.955Z,9.40
2022-10-10T03:17:39.950Z,9.40
2022-10-10T03:20:08.339Z,9.40
2022-10-10T03:22:35.476Z,9.30
2022-10-10T03:25:02.661Z,9.40
2022-10-10T03:27:29.872Z,9.40
2022-10-10T03:29:57.010Z,9.40
2022-10-10T03:32:24.174Z,9.40
2022-10-10T03:34:51.346Z,9.40
2022-10-10T03:37:18.376Z,9.50
2022-10-10T03:39:45.693Z,9.50
2022-10-10T03:42:12.775Z,9.50
2022-10-10T03:44:39.907Z,9.50
2022-10-10T03:47:07.023Z,9.50
2022-10-10T03:49:34.155Z,9.60
2022-10-10T03:52:01.516Z,9.60
2022-10-10T03:54:28.662Z,9.60
2022-10-10T03:56:55.679Z,9.60
2022-10-10T03:59:22.821Z,9.60
2022-10-10T04:01:49.918Z,9.60
2022-10-10T04:04:19.887Z,9.60
2022-10-10T04:06:46.936Z,9.60
2022-10-10T04:09:13.973Z,9.70
2022-10-10T04:11:41.158Z,9.60
2022-10-10T04:14:08.263Z,9.60
2022-10-10T04:16:35.539Z,9.60
2022-10-10T04:19:02.664Z,9.60
2022-10-10T04:21:29.796Z,9.60
2022-10-10T04:23:56.939Z,9.70
2022-10-10T04:26:24.089Z,9.70
2022-10-10T04:28:51.156Z,9.70
2022-10-10T04:31:18.332Z,9.70
2022-10-10T04:33:45.602Z,9.70
2022-10-10T04:36:12.742Z,9.70
2022-10-10T04:38:39.810Z,9.80
2022-10-10T04:41:07.075Z,9.70
2022-10-10T04:43:34.861Z,9.80
2022-10-10T04:46:01.958Z,9.80
2022-10-10T04:48:29.066Z,9.70
2022-10-10T04:50:58.313Z,9.70
2022-10-10T04:53:26.963Z,9.80
2022-10-10T04:55:54.203Z,9.80
2022-10-10T04:58:21.544Z,9.80
2022-10-10T05:00:56.187Z,9.80
2022-10-10T05:03:24.214Z,9.80
2022-10-10T05:05:51.541Z,9.80
2022-10-10T05:08:19.441Z,9.80
2022-10-10T05:10:47.622Z,9.80
2022-10-10T05:13:16.581Z,9.70
2022-10-10T05:15:43.810Z,9.80
2022-10-10T05:18:11.067Z,9.70
2022-10-10T05:20:38.262Z,9.70
2022-10-10T05:23:05.353Z,9.70
2022-10-10T05:25:32.478Z,9.70
2022-10-10T05:27:59.576Z,9.70
2022-10-10T05:30:26.786Z,9.70
2022-10-10T05:32:54.078Z,9.70
2022-10-10T05:35:21.453Z,9.70
2022-10-10T05:37:48.791Z,9.70
2022-10-10T05:40:15.978Z,9.80
2022-10-10T05:42:43.055Z,9.80
2022-10-10T05:45:10.991Z,9.80
2022-10-10T05:47:38.595Z,9.90
2022-10-10T05:50:06.870Z,9.90
2022-10-10T05:52:35.367Z,10.00
2022-10-10T05:55:02.454Z,10.00
2022-10-10T05:57:29.592Z,10.20
2022-10-10T05:59:56.725Z,10.30
2022-10-10T06:02:23.735Z,10.40
2022-10-10T06:04:50.842Z,10.50
2022-10-10T06:07:17.894Z,10.60
2022-10-10T06:09:45.178Z,10.60
2022-10-10T06:12:12.298Z,10.80
2022-10-10T06:14:39.383Z,10.80
2022-10-10T06:17:06.594Z,10.90
2022-10-10T06:19:33.752Z,11.00
2022-10-10T06:22:01.468Z,11.10
2022-10-10T06:24:28.598Z,11.10
2022-10-10T06:26:55.670Z,11.20
2022-10-10T06:29:22.957Z,11.30
2022-10-10T06:31:50.026Z,11.30
2022-10-10T06:34:17.234Z,11.30
2022-10-10T06:36:44.330Z,11.40
2022-10-10T06:39:11.494Z,11.50
2022-10-10T06:41:38.570Z,11.60
2022-10-10T06:44:11.073Z,11.70
2022-10-10T06:46:38.181Z,11.80
2022-10-10T06:49:06.028Z,12.10
2022-10-10T06:51:33.125Z,12.30
2022-10-10T06:54:00.281Z,12.60
2022-10-10T06:56:28.598Z,12.90
2022-10-10T06:58:55.835Z,13.10
2022-10-10T07:01:24.430Z,13.20
2022-10-10T07:03:51.869Z,13.30
2022-10-10T07:06:19.126Z,13.30
2022-10-10T07:08:46.203Z,13.50
2022-10-10T07:11:13.726Z,13.70
2022-10-10T07:13:41.082Z,14.10
2022-10-10T07:16:08.481Z,14.30
2022-10-10T07:18:36.940Z,14.40
2022-10-10T07:21:05.585Z,14.50
2022-10-10T07:23:33.065Z,14.50
2022-10-10T07:26:06.938Z,14.50
2022-10-10T07:28:35.238Z,14.50
2022-10-10T07:31:05.268Z,14.50
2022-10-10T07:33:35.245Z,14.60
2022-10-10T07:36:02.560Z,14.80
2022-10-10T07:38:31.492Z,15.00
2022-10-10T07:40:58.525Z,15.10
2022-10-10T07:43:26.061Z,15.60
2022-10-10T07:45:53.301Z,16.50
2022-10-10T07:48:20.416Z,17.80
2022-10-10T07:50:47.903Z,19.30
2022-10-10T07:53:14.954Z,19.60
2022-10-10T07:55:43.127Z,18.90
2022-10-10T07:58:12.472Z,18.00
2022-10-10T08:00:42.287Z,17.10
2022-10-10T08:03:12.091Z,16.40
2022-10-10T08:05:44.304Z,15.90
2022-10-10T08:08:14.001Z,15.70
2022-10-10T08:10:44.422Z,15.20
2022-10-10T08:13:11.622Z,15.10
2022-10-10T08:15:40.460Z,14.90
2022-10-10T08:18:10.692Z,15.00
2022-10-10T08:20:37.869Z,15.40
2022-10-10T08:23:04.977Z,15.70
2022-10-10T08:25:32.048Z,15.70
2022-10-10T08:27:59.329Z,15.60
2022-10-10T08:30:26.744Z,15.20
2022-10-10T08:32:55.905Z,15.10
2022-10-10T08:35:23.076Z,14.80
2022-10-10T08:37:50.725Z,14.90
2022-10-10T08:40:20.391Z,15.00
2022-10-10T08:42:53.207Z,14.90
2022-10-10T08:45:29.324Z,14.90
2022-10-10T08:48:03.066Z,14.90
2022-10-10T08:50:36.245Z,14.70
2022-10-10T08:53:06.139Z,14.60
2022-10-10T08:55:35.789Z,14.60
2022-10-10T08:58:27.982Z,14.70
2022-10-10T09:01:04.932Z,14.70
2022-10-10T09:03:37.809Z,14.80
2022-10-10T09:06:24.867Z,14.90
2022-10-10T09:09:08.258Z,15.10
2022-10-10T09:11:55.255Z,15.30
2022-10-10T09:14:23.367Z,15.60
2022-10-10T09:17:00.599Z,15.70
2022-10-10T09:19:59.907Z,16.00
2022-10-10T09:22:33.984Z,16.00
2022-10-10T09:25:18.976Z,15.70
2022-10-10T09:27:58.450Z,15.80
2022-10-10T09:30:26.073Z,16.10
2022-10-10T09:33:01.161Z,16.20
2022-10-10T09:35:34.603Z,16.30
2022-10-10T09:38:35.900Z,16.60
2022-10-10T09:41:14.298Z,16.50
2022-10-10T09:43:42.102Z,16.60
2022-10-10T09:46:09.195Z,16.80
2022-10-10T09:48:39.739Z,16.80
2022-10-10T09:51:12.625Z,16.70
2022-10-10T09:53:44.233Z,16.90
2022-10-10T09:56:18.217Z,17.10
2022-10-10T09:58:49.029Z,17.30
2022-10-10T10:01:33.286Z,17.30
2022-10-10T10:04:27.966Z,17.40
2022-10-10T10:07:06.550Z,17.50
2022-10-10T10:09:34.019Z,17.60
2022-10-10T10:12:02.247Z,17.80
2022-10-10T10:14:35.689Z,17.80
2022-10-10T10:17:23.836Z,18.00
2022-10-10T10:19:51.492Z,18.20
2022-10-10T10:22:39.495Z,18.40
2022-10-10T10:25:32.405Z,18.70
2022-10-10T10:28:20.432Z,18.70
2022-10-10T10:30:48.485Z,18.90
2022-10-10T10:33:43.272Z,19.10
2022-10-10T10:36:50.187Z,19.20
2022-10-10T10:39:37.893Z,19.50
2022-10-10T10:42:07.135Z,19.60
2022-10-10T10:45:01.746Z,19.90
2022-10-10T10:47:32.397Z,20.10
2022-10-10T10:50:06.261Z,20.10
2022-10-10T10:53:00.970Z,20.20
2022-10-10T10:55:35.808Z,20.10
2022-10-10T11:02:02.480Z,20.20
2022-10-10T11:05:19.252Z,20.50
2022-10-10T11:08:20.028Z,21.10
2022-10-10T11:11:17.529Z,20.80
2022-10-10T11:14:10.753Z,20.90
2022-10-10T11:16:49.058Z,20.60
2022-10-10T11:19:25.898Z,20.40
2022-10-10T11:22:02.723Z,20.40
2022-10-10T11:24:30.005Z,20.40
2022-10-10T11:27:02.714Z,19.80
2022-10-10T11:29:35.551Z,19.40
2022-10-10T11:32:10.810Z,19.50
2022-10-10T11:34:42.593Z,19.50
2022-10-10T11:37:19.106Z,19.70
2022-10-10T11:39:56.452Z,19.80
2022-10-10T11:42:33.024Z,19.60
2022-10-10T11:45:05.284Z,19.60
2022-10-10T11:47:39.933Z,19.50
2022-10-10T11:50:26.788Z,19.50
2022-10-10T11:53:13.394Z,19.60
2022-10-10T11:56:20.353Z,19.50
2022-10-10T11:58:55.533Z,19.60
2022-10-10T12:01:30.824Z,19.30
2022-10-10T12:03:58.005Z,19.20
2022-10-10T12:06:32.727Z,19.10
2022-10-10T12:09:07.503Z,19.30
2022-10-10T12:11:49.734Z,19.40
2022-10-10T12:14:22.404Z,19.70
2022-10-10T12:16:57.808Z,19.80
2022-10-10T12:19:28.545Z,20.10
2022-10-10T12:21:59.798Z,20.20
2022-10-10T12:24:37.770Z,20.20
2022-10-10T12:27:08.275Z,20.20
2022-10-10T12:29:47.771Z,19.90
2022-10-10T12:32:18.509Z,20.00
2022-10-10T12:34:49.146Z,19.80
2022-10-10T12:37:27.040Z,19.60
2022-10-10T12:40:07.114Z,19.30
2022-10-10T12:42:39.886Z,19.00
2022-10-10T12:45:30.561Z,18.80
2022-10-10T12:48:05.384Z,18.80
2022-10-10T12:50:40.265Z,18.80
2022-10-10T12:53:17.097Z,18.90
2022-10-10T12:55:47.068Z,19.00
2022-10-10T12:58:27.086Z,19.20
2022-10-10T13:00:58.100Z,19.20
2022-10-10T13:03:33.105Z,19.00
2022-10-10T13:06:06.786Z,18.90
2022-10-10T13:08:37.531Z,18.90
2022-10-10T13:11:12.135Z,18.90
2022-10-10T13:13:48.315Z,18.80
2022-10-10T13:16:19.694Z,18.90
2022-10-10T13:18:56.286Z,19.00
2022-10-10T13:21:29.474Z,19.10
2022-10-10T13:24:03.718Z,19.10
2022-10-10T13:26:35.606Z,19.10
2022-10-10T13:29:27.352Z,19.00
2022-10-10T13:32:00.476Z,19.00
2022-10-10T13:34:32.161Z,19.10
2022-10-10T13:37:01.410Z,18.90
2022-10-10T13:39:31.857Z,18.80
2022-10-10T13:42:00.083Z,18.60
2022-10-10T13:44:49.984Z,18.60
2022-10-10T13:47:53.951Z,18.60
2022-10-10T13:50:24.527Z,18.40
2022-10-10T13:53:27.622Z,18.30
2022-10-10T13:56:18.295Z,18.40
2022-10-10T13:58:50.701Z,18.40
2022-10-10T14:01:41.748Z,18.30
2022-10-10T14:04:13.396Z,18.30
2022-10-10T14:06:48.779Z,18.10
2022-10-10T14:09:30.730Z,18.10
2022-10-10T14:12:00.528Z,18.00
2022-10-10T14:14:41.585Z,18.10
2022-10-10T14:17:10.376Z,18.00
2022-10-10T14:19:38.637Z,18.00
2022-10-10T14:22:06.155Z,17.90
2022-10-10T14:24:33.367Z,17.80
2022-10-10T14:27:20.434Z,17.70
2022-10-10T14:29:47.958Z,17.70
2022-10-10T14:32:15.676Z,17.70
2022-10-10T14:34:43.249Z,17.70
2022-10-10T14:37:23.169Z,17.70
2022-10-10T14:39:51.142Z,17.70
2022-10-10T14:42:20.551Z,17.60
2022-10-10T14:44:48.274Z,17.50
2022-10-10T14:47:21.097Z,17.60
2022-10-10T14:49:48.719Z,17.50
2022-10-10T14:52:16.322Z,17.40
2022-10-10T14:54:43.589Z,17.30
2022-10-10T14:57:13.349Z,17.30
2022-10-10T14:59:47.789Z,17.20
2022-10-10T15:02:18.141Z,17.10
2022-10-10T15:04:45.240Z,17.10
2022-10-10T15:07:14.378Z,17.10
2022-10-10T15:10:02.528Z,17.00
2022-10-10T15:12:32.617Z,17.00
2022-10-10T15:14:59.862Z,16.90
2022-10-10T15:17:27.342Z,16.90
2022-10-10T15:19:54.468Z,16.80
2022-10-10T15:22:21.642Z,16.80
2022-10-10T15:24:48.679Z,16.80
2022-10-10T15:27:16.421Z,16.70
2022-10-10T15:29:43.517Z,16.60
2022-10-10T15:32:10.705Z,16.50
2022-10-10T15:34:37.994Z,16.50
2022-10-10T15:37:05.174Z,16.40
2022-10-10T15:39:35.516Z,16.40
2022-10-10T15:42:09.586Z,16.30
2022-10-10T15:44:45.761Z,16.20
2022-10-10T15:47:14.273Z,16.20
2022-10-10T15:49:42.009Z,16.00
2022-10-10T15:52:09.851Z,16.00
2022-10-10T15:54:37.206Z,15.90
2022-10-10T15:57:04.432Z,15.80
2022-10-10T15:59:31.828Z,15.80
2022-10-10T16:01:58.950Z,15.60
2022-10-10T16:04:26.651Z,15.50
2022-10-10T16:07:20.042Z,15.40
2022-10-10T16:09:41.623Z,15.30
2022-10-10T16:12:09.062Z,15.20
2022-10-10T16:14:36.269Z,15.10
2022-10-10T16:17:03.312Z,15.00
2022-10-10T16:19:30.363Z,14.90
2022-10-10T16:21:57.492Z,14.80
2022-10-10T16:24:24.669Z,14.70
2022-10-10T16:26:51.776Z,14.60
2022-10-10T16:29:18.839Z,14.50
2022-10-10T16:31:46.136Z,14.40
2022-10-10T16:34:15.911Z,14.30
2022-10-10T16:36:43.494Z,14.20
2022-10-10T16:39:10.714Z,14.20
2022-10-10T16:41:53.182Z,14.10
2022-10-10T16:44:20.410Z,14.00
2022-10-10T16:46:47.699Z,13.90
2022-10-10T16:49:17.087Z,13.90
2022-10-10T16:51:44.309Z,13.90
2022-10-10T16:54:11.470Z,13.80
2022-10-10T16:56:38.512Z,13.70
2022-10-10T16:59:05.857Z,13.70
2022-10-10T17:01:33.084Z,13.60
2022-10-10T17:04:01.429Z,13.60
2022-10-10T17:06:37.419Z,13.50
2022-10-10T17:09:07.449Z,13.40
2022-10-10T17:11:35.186Z,13.40
2022-10-10T17:14:02.405Z,13.40
2022-10-10T17:19:18.448Z,13.30
2022-10-10T17:21:45.582Z,13.30
2022-10-10T17:24:13.371Z,13.30
2022-10-10T17:26:40.517Z,13.20
2022-10-10T17:29:08.158Z,13.20
2022-10-10T17:31:35.230Z,13.20
2022-10-10T17:34:02.483Z,13.20
2022-10-10T17:36:29.745Z,13.10
2022-10-10T17:39:00.594Z,13.10
2022-10-10T17:41:28.871Z,13.00
2022-10-10T17:43:56.323Z,13.00
2022-10-10T17:46:34.899Z,13.00
2022-10-10T17:49:09.302Z,12.90
2022-10-10T17:51:37.456Z,12.80
2022-10-10T17:54:06.444Z,12.90
2022-10-10T17:56:34.283Z,12.90
2022-10-10T17:59:02.586Z,12.80
2022-10-10T18:01:30.937Z,12.80
2022-10-10T18:03:58.756Z,12.70
2022-10-10T18:06:26.358Z,12.70
2022-10-10T18:08:54.478Z,12.70
2022-10-10T18:11:30.462Z,12.60
2022-10-10T18:14:00.823Z,12.50
2022-10-10T18:16:33.972Z,12.50
2022-10-10T18:19:03.449Z,12.40
2022-10-10T18:21:31.584Z,12.50
2022-10-10T18:23:58.671Z,12.50
2022-10-10T18:26:30.648Z,12.40
2022-10-10T18:28:58.239Z,12.40
2022-10-10T18:31:29.371Z,12.30
2022-10-10T18:33:57.642Z,12.20
2022-10-10T18:36:27.584Z,12.20
2022-10-10T18:38:57.348Z,12.10
2022-10-10T18:41:28.010Z,12.10
2022-10-10T18:43:57.871Z,12.10
2022-10-10T18:46:25.782Z,12.10
2022-10-10T18:48:54.433Z,12.10
2022-10-10T18:51:25.450Z,12.00
2022-10-10T18:54:03.265Z,12.00
2022-10-10T18:56:32.739Z,12.00
2022-10-10T18:59:03.869Z,12.00
2022-10-10T19:01:36.891Z,11.90
2022-10-10T19:04:05.726Z,11.90
2022-10-10T19:06:34.250Z,11.90
2022-10-10T19:09:06.602Z,11.90
2022-10-10T19:11:39.189Z,11.90
2022-10-10T19:14:11.346Z,11.80
2022-10-10T19:16:39.467Z,11.80
2022-10-10T19:19:06.690Z,11.70
2022-10-10T19:21:38.369Z,11.60
2022-10-10T19:24:08.200Z,11.60
2022-10-10T19:26:36.368Z,11.60
2022-10-10T19:29:08.672Z,11.50
2022-10-10T19:31:37.587Z,11.40
2022-10-10T19:34:05.313Z,11.40
2022-10-10T19:36:33.075Z,11.40
2022-10-10T19:39:01.537Z,11.40
2022-10-10T19:41:29.740Z,11.30
2022-10-10T19:43:58.678Z,11.30
2022-10-10T19:46:27.752Z,11.40
2022-10-10T19:48:59.629Z,11.40
2022-10-10T19:51:29.533Z,11.30
2022-10-10T19:53:58.924Z,11.20
2022-10-10T19:56:27.164Z,11.20
2022-10-10T19:59:08.241Z,11.20
2022-10-10T20:01:38.507Z,11.20
2022-10-10T20:04:05.905Z,11.10
2022-10-10T20:06:41.504Z,11.10
2022-10-10T20:09:11.116Z,11.10
2022-10-10T20:11:39.019Z,11.10
2022-10-10T20:14:08.280Z,11.10
2022-10-10T20:16:42.445Z,11.10
2022-10-10T20:19:12.550Z,11.00
2022-10-10T20:21:40.128Z,11.00
2022-10-10T20:24:09.882Z,10.90
2022-10-10T20:26:37.029Z,10.80
2022-10-10T20:29:05.390Z,10.80
2022-10-10T20:31:36.507Z,10.70
2022-10-10T20:34:05.352Z,10.70
2022-10-10T20:36:33.952Z,10.70
2022-10-10T20:39:05.193Z,10.70
2022-10-10T20:41:34.175Z,10.70
2022-10-10T20:44:04.828Z,10.60
2022-10-10T20:46:36.542Z,10.60
2022-10-10T20:49:12.811Z,10.50
2022-10-10T20:51:40.227Z,10.40
2022-10-10T20:54:08.256Z,10.40
2022-10-10T20:56:35.820Z,10.40
2022-10-10T20:59:03.025Z,10.30
2022-10-10T21:01:30.887Z,10.30
2022-10-10T21:03:58.843Z,10.30
2022-10-10T21:06:29.370Z,10.20
2022-10-10T21:08:59.425Z,10.20
2022-10-10T21:11:27.405Z,10.20
2022-10-10T21:13:57.423Z,10.20
2022-10-10T21:16:28.658Z,10.10
2022-10-10T21:18:58.401Z,10.10
2022-10-10T21:21:29.865Z,10.10
2022-10-10T21:23:57.263Z,10.00
2022-10-10T21:26:26.850Z,10.00
2022-10-10T21:28:55.748Z,10.00
2022-10-10T21:31:26.521Z,9.90
2022-10-10T21:33:55.965Z,9.90
2022-10-10T21:36:25.771Z,9.90
2022-10-10T21:38:54.765Z,9.90
2022-10-10T21:41:22.890Z,9.90
2022-10-10T21:43:53.107Z,9.90
2022-10-10T21:46:25.060Z,9.90
2022-10-10T21:48:54.034Z,9.90
2022-10-10T21:51:21.741Z,9.90
2022-10-10T21:53:49.337Z,9.90
2022-10-10T21:56:17.115Z,9.90
2022-10-10T21:58:46.382Z,9.90
2022-10-10T22:01:16.748Z,9.80
2022-10-10T22:03:44.901Z,9.80
2022-10-10T22:06:13.928Z,9.60
2022-10-10T22:08:42.390Z,9.60
2022-10-10T22:11:12.733Z,9.50
2022-10-10T22:13:40.100Z,9.40
2022-10-10T22:16:08.601Z,9.40
2022-10-10T22:18:36.609Z,9.50
2022-10-10T22:21:05.621Z,9.50
2022-10-10T22:23:32.888Z,9.50
2022-10-10T22:26:00.129Z,9.40
2022-10-10T22:28:27.481Z,9.30
2022-10-10T22:30:54.602Z,9.40
2022-10-10T22:33:21.704Z,9.40
2022-10-10T22:35:48.736Z,9.40
2022-10-10T22:38:15.875Z,9.40
2022-10-10T22:40:42.938Z,9.40
2022-10-10T22:43:09.934Z,9.30
2022-10-10T22:45:37.017Z,9.20
2022-10-10T22:48:04.126Z,9.10
2022-10-10T22:50:31.335Z,9.20
2022-10-10T22:52:58.374Z,9.20
2022-10-10T22:55:25.399Z,9.20
2022-10-10T22:57:52.506Z,9.20
2022-10-10T23:00:19.906Z,9.20
2022-10-10T23:02:46.930Z,9.10
2022-10-10T23:05:14.226Z,9.00
2022-10-10T23:07:41.739Z,9.10
2022-10-10T23:10:09.605Z,9.10
2022-10-10T23:12:38.397Z,9.00
2022-10-10T23:15:06.002Z,8.90
2022-10-10T23:17:36.619Z,8.90
2022-10-10T23:20:06.126Z,8.90
2022-10-10T23:22:34.239Z,8.90
2022-10-10T23:25:01.557Z,8.90
2022-10-10T23:27:28.791Z,9.00
2022-10-10T23:29:55.861Z,9.10
2022-10-10T23:32:25.156Z,9.00
2022-10-10T23:34:52.367Z,9.00
2022-10-10T23:37:19.390Z,9.00
2022-10-10T23:39:46.458Z,9.00
2022-10-10T23:42:13.520Z,8.90
2022-10-10T23:44:40.624Z,8.90
2022-10-10T23:47:07.710Z,8.90
2022-10-10T23:49:34.748Z,8.80
2022-10-10T23:52:01.894Z,8.80
2022-10-10T23:54:28.988Z,8.80
2022-10-10T23:56:56.173Z,8.80
2022-10-10T23:59:23.193Z,8.80
